Data for 04/16/2010

Time Sea-Level Adjusted Pressure Absolute Pressure Temperature Relative Humidity Dew Point   
(mb) (inHg) (mb) (inHg) (C) (F) (%) (C) (F)
00:05 1026 30.3 855 25.25 5.8 42.4 53 -3.1 26.4
00:10 1026 30.3 855 25.25 5.7 42.2 53 -3.2 26.2
00:15 1026 30.3 855 25.25 5.6 42.1 53 -3.2 26.2
00:20 1026 30.3 855 25.25 5.5 41.9 53 -3.3 26
00:25 1026 30.3 856 25.28 5.5 41.8 54 -3.2 26.2
00:30 1026 30.3 856 25.28 5.4 41.7 53 -3.4 25.9
00:35 1026 30.3 856 25.28 5.4 41.6 53 -3.4 25.8
00:40 1026 30.3 856 25.28 5.3 41.6 53 -3.4 25.8
00:45 1026 30.3 856 25.28 5.2 41.4 54 -3.3 26.1
00:50 1026 30.3 856 25.28 5.1 41.2 54 -3.5 25.8
00:55 1026 30.3 856 25.28 5 41 54 -3.5 25.7
01:00 1026 30.3 856 25.28 4.9 40.8 55 -3.4 25.9
01:05 1026 30.3 856 25.28 4.8 40.6 55 -3.5 25.6
01:10 1026 30.3 856 25.28 4.7 40.5 55 -3.6 25.6
01:15 1026 30.3 855 25.25 4.7 40.4 55 -3.5 25.7
01:20 1026 30.3 856 25.28 4.6 40.3 55 -3.6 25.5
01:25 1026 30.3 855 25.25 4.6 40.3 55 -3.6 25.5
01:30 1026 30.3 855 25.25 4.6 40.3 55 -3.6 25.4
01:35 1026 30.3 855 25.25 4.6 40.3 55 -3.8 25.2
01:40 1026 30.3 855 25.25 4.6 40.4 54 -3.8 25.2
01:45 1026 30.3 855 25.25 4.6 40.3 55 -3.8 25.2
01:50 1026 30.3 855 25.25 4.5 40.2 55 -3.7 25.3
01:55 1026 30.3 855 25.25 4.3 39.8 56 -3.7 25.3
02:00 1026 30.3 855 25.25 4.2 39.6 56 -3.6 25.4
02:05 1026 30.3 855 25.25 4.2 39.5 57 -3.7 25.4
02:10 1026 30.3 855 25.25 4.1 39.3 57 -3.7 25.3
02:15 1026 30.3 855 25.25 3.9 39.1 57 -3.8 25.2
02:20 1026 30.3 855 25.25 3.9 39.1 57 -3.8 25.2
02:25 1026 30.3 855 25.25 3.9 38.9 58 -3.7 25.4
02:30 1026 30.3 855 25.25 3.8 38.9 58 -3.7 25.3
02:35 1026 30.3 855 25.25 3.8 38.8 58 -3.7 25.3
02:40 1026 30.3 855 25.25 3.8 38.8 57 -3.9 25
02:45 1026 30.3 855 25.25 3.8 38.9 57 -3.9 25.1
02:50 1026 30.3 855 25.25 3.8 38.9 58 -3.7 25.4
02:55 1026 30.3 855 25.25 3.7 38.7 58 -3.8 25.1
03:00 1026 30.3 855 25.25 3.7 38.6 58 -3.8 25.2
03:05 1026 30.3 855 25.25 3.6 38.4 58 -3.9 25.1
03:10 1026 30.3 855 25.25 3.5 38.3 59 -3.8 25.1
03:15 1026 30.3 855 25.25 3.5 38.3 58 -3.9 25
03:20 1026 30.3 855 25.25 3.5 38.3 58 -3.9 25
03:25 1026 30.3 855 25.25 3.4 38.2 59 -3.9 25
03:30 1025 30.27 855 25.25 3.4 38.2 58 -4 24.9
03:35 1025 30.27 855 25.25 3.5 38.3 58 -3.9 24.9
03:40 1025 30.27 855 25.25 3.5 38.3 58 -3.9 24.9
03:45 1025 30.27 855 25.25 3.5 38.2 59 -3.9 25
03:50 1026 30.3 855 25.25 3.4 38.1 59 -3.9 25
03:55 1026 30.3 855 25.25 3.3 38 59 -4 24.9
04:00 1025 30.27 855 25.25 3.4 38 59 -4 24.8
04:05 1025 30.27 855 25.25 3.4 38.2 58 -4.1 24.6
04:10 1025 30.27 855 25.25 3.6 38.4 57 -4.1 24.7
04:15 1026 30.3 855 25.25 3.5 38.3 58 -4 24.8
04:20 1025 30.27 855 25.25 3.4 38.2 58 -4 24.8
04:25 1025 30.27 855 25.25 3.4 38 59 -4 24.8
04:30 1025 30.27 855 25.25 3.3 37.9 59 -4 24.8
04:35 1025 30.27 855 25.25 3.2 37.8 59 -4 24.7
04:40 1025 30.27 854 25.22 3.2 37.8 59 -4 24.8
04:45 1025 30.27 854 25.22 3.1 37.6 60 -3.9 24.9
04:50 1025 30.27 854 25.22 3 37.4 60 -4 24.8
04:55 1025 30.27 854 25.22 3 37.4 60 -3.9 25
05:00 1025 30.27 854 25.22 2.9 37.3 61 -3.9 25
05:05 1025 30.27 854 25.22 2.8 37.1 61 -3.9 25
05:10 1025 30.27 854 25.22 2.8 37.1 61 -4 24.8
05:15 1025 30.27 854 25.22 2.9 37.2 60 -4 24.7
05:20 1025 30.27 854 25.22 2.9 37.2 60 -4.1 24.7
05:25 1025 30.27 854 25.22 3 37.4 60 -4 24.8
05:30 1025 30.27 854 25.22 2.9 37.3 60 -4 24.8
05:35 1025 30.27 854 25.22 2.9 37.2 60 -4 24.7
05:40 1025 30.27 854 25.22 2.9 37.3 60 -4.1 24.6
05:45 1025 30.27 854 25.22 3.1 37.5 59 -4.1 24.6
05:50 1025 30.27 854 25.22 3 37.4 60 -4.1 24.7
05:55 1025 30.27 854 25.22 2.9 37.2 60 -4.1 24.6
06:00 1025 30.27 854 25.22 2.9 37.2 60 -4.2 24.5
06:05 1025 30.27 854 25.22 3 37.4 59 -4.1 24.6
06:10 1025 30.27 854 25.22 2.9 37.3 60 -4.1 24.6
06:15 1025 30.27 854 25.22 2.9 37.2 60 -4.1 24.7
06:20 1025 30.27 854 25.22 2.8 37 61 -4.1 24.6
06:25 1025 30.27 854 25.22 2.7 36.8 61 -4.1 24.6
06:30 1025 30.27 854 25.22 2.7 36.8 61 -4.1 24.6
06:35 1025 30.27 854 25.22 2.6 36.7 61 -4.1 24.7
06:40 1025 30.27 854 25.22 2.5 36.5 61 -4.2 24.5
06:45 1025 30.27 854 25.22 2.5 36.6 61 -4.2 24.4
06:50 1025 30.27 854 25.22 2.5 36.6 61 -4.1 24.6
06:55 1025 30.27 854 25.22 2.6 36.6 61 -4.2 24.5
07:00 1025 30.27 854 25.22 2.6 36.7 61 -4.2 24.4
07:05 1025 30.27 854 25.22 2.7 36.9 61 -4.2 24.5
07:10 1025 30.27 855 25.25 2.9 37.1 60 -4.2 24.5
07:15 1025 30.27 854 25.22 2.9 37.2 60 -4.2 24.5
07:20 1025 30.27 854 25.22 3 37.3 59 -4.2 24.4
07:25 1025 30.27 854 25.22 3.1 37.6 59 -4.2 24.4
07:30 1025 30.27 854 25.22 3.2 37.7 59 -4.1 24.5
07:35 1025 30.27 855 25.25 3.3 37.9 58 -4.1 24.6
07:40 1025 30.27 855 25.25 3.5 38.2 57 -4.2 24.5
07:45 1025 30.27 854 25.22 3.5 38.4 57 -4.1 24.5
07:50 1025 30.27 854 25.22 3.6 38.5 57 -4.1 24.7
07:55 1025 30.27 854 25.22 3.8 38.8 56 -4.1 24.5
08:00 1025 30.27 854 25.22 3.9 39 56 -4 24.9
08:05 1025 30.27 854 25.22 4.1 39.4 55 -4 24.8
08:10 1025 30.27 854 25.22 4.2 39.6 55 -4 24.8
08:15 1025 30.27 854 25.22 4.3 39.7 55 -4 24.8
08:20 1025 30.27 854 25.22 4.4 39.9 54 -4 24.8
08:25 1025 30.27 854 25.22 4.5 40.2 54 -3.9 25
08:30 1025 30.27 854 25.22 4.8 40.6 53 -3.9 24.9
08:35 1025 30.27 854 25.22 5 40.9 53 -3.8 25.2
08:40 1025 30.27 854 25.22 5.1 41.3 53 -3.7 25.3
08:45 1025 30.27 854 25.22 5.1 41.1 53 -3.7 25.3
08:50 1025 30.27 854 25.22 5.2 41.4 52 -3.8 25.2
08:55 1025 30.27 854 25.22 5.5 41.8 51 -3.8 25.1
09:00 1025 30.27 854 25.22 5.7 42.3 51 -3.7 25.4
09:05 1025 30.27 854 25.22 5.7 42.2 51 -3.6 25.5
09:10 1025 30.27 854 25.22 5.8 42.5 50 -3.7 25.3
09:15 1025 30.27 854 25.22 6.2 43.1 50 -3.5 25.6
09:20 1025 30.27 854 25.22 6.5 43.7 48 -3.6 25.6
09:25 1024 30.24 854 25.22 6.5 43.7 49 -3.5 25.7
09:30 1024 30.24 854 25.22 6.6 43.8 48 -3.7 25.4
09:35 1024 30.24 853 25.19 6.8 44.3 48 -3.4 25.9
09:40 1024 30.24 853 25.19 7 44.7 47 -3.5 25.7
09:45 1024 30.24 853 25.19 7.3 45.1 47 -3.3 26.1
09:50 1024 30.24 853 25.19 7.2 45 47 -3.4 25.9
09:55 1024 30.24 853 25.19 7.5 45.6 46 -3.2 26.3
10:00 1024 30.24 853 25.19 8 46.5 44 -3.5 25.8
10:05 1024 30.24 853 25.19 8 46.4 45 -3.3 26.1
10:10 1024 30.24 853 25.19 8 46.4 44 -3.5 25.7
10:15 1024 30.24 853 25.19 8.3 46.9 43 -3.6 25.4
10:20 1024 30.24 853 25.19 8.8 47.9 41 -3.7 25.3
10:25 1024 30.24 853 25.19 8.9 48 44 -2.8 27
10:30 1024 30.24 853 25.19 8.7 47.6 45 -2.5 27.5
10:35 1024 30.24 853 25.19 9.3 48.7 44 -2.3 27.9
10:40 1024 30.24 853 25.19 9.2 48.6 42 -3.1 26.5
10:45 1024 30.24 853 25.19 9.6 49.2 42 -2.6 27.4
10:50 1024 30.24 853 25.19 9.4 48.8 42 -2.9 26.8
10:55 1023 30.21 853 25.19 9.7 49.5 42 -2.4 27.6
11:00 1023 30.21 853 25.19 10.1 50.1 42 -2.2 28.1
11:05 1023 30.21 853 25.19 10 50.1 41 -2.7 27.1
11:10 1023 30.21 853 25.19 10.3 50.5 41 -2.3 27.8
11:15 1023 30.21 853 25.19 10.4 50.6 38 -3.2 26.2
11:20 1023 30.21 852 25.16 11 51.8 40 -2.1 28.2
11:25 1023 30.21 852 25.16 10.6 51.1 41 -2.1 28.2
11:30 1023 30.21 852 25.16 11 51.8 38 -2.7 27.1
11:35 1023 30.21 852 25.16 11.2 52.2 38 -2.7 27.1
11:40 1023 30.21 852 25.16 12.1 53.7 36 -2.4 27.7
11:45 1023 30.21 852 25.16 12.3 54.1 38 -1.7 29
11:50 1023 30.21 852 25.16 11.9 53.4 37 -2.4 27.7
11:55 1023 30.21 852 25.16 12.7 54.9 36 -1.9 28.5
12:00 1023 30.21 852 25.16 12.5 54.4 37 -1.8 28.8
12:05 1023 30.21 852 25.16 12 53.6 38 -1.9 28.6
12:10 1023 30.21 852 25.16 12.4 54.4 35 -2.5 27.5
12:15 1023 30.21 852 25.16 13.4 56.2 35 -1.7 29
12:20 1023 30.21 852 25.16 13.4 56.1 36 -1.4 29.4
12:25 1023 30.21 852 25.16 12.9 55.2 34 -2.3 27.8
12:30 1023 30.21 852 25.16 13 55.4 36 -1.6 29.2
12:35 1022 30.18 852 25.16 13.5 56.4 34 -2.1 28.2
12:40 1022 30.18 852 25.16 13.2 55.7 35 -1.9 28.5
12:45 1022 30.18 852 25.16 13.7 56.7 32 -2.6 27.4
12:50 1022 30.18 851 25.13 13.7 56.7 33 -2.1 28.2
12:55 1022 30.18 851 25.13 14.7 58.4 31 -2.4 27.8
13:00 1022 30.18 851 25.13 14.5 58.1 32 -2 28.5
13:05 1022 30.18 851 25.13 15 58.9 30 -2.2 28
13:10 1022 30.18 851 25.13 15.2 59.4 31 -1.7 28.9
13:15 1022 30.18 851 25.13 14.9 58.9 29 -2.9 26.8
13:20 1022 30.18 851 25.13 14.8 58.6 30 -2.6 27.3
13:25 1022 30.18 851 25.13 14.8 58.7 30 -2.4 27.7
13:30 1021 30.15 851 25.13 15 59 29 -2.9 26.8
13:35 1021 30.15 851 25.13 14.7 58.4 30 -2.7 27.1
13:40 1021 30.15 850 25.1 14.7 58.4 29 -3 26.7
13:45 1021 30.15 850 25.1 14.8 58.6 30 -2.7 27.1
13:50 1021 30.15 850 25.1 14.7 58.4 28 -3.4 25.9
13:55 1021 30.15 850 25.1 15.5 59.9 28 -2.9 26.8
14:00 1021 30.15 850 25.1 15.2 59.3 29 -2.5 27.5
14:05 1021 30.15 850 25.1 14.9 58.7 30 -2.6 27.3
14:10 1021 30.15 850 25.1 14.9 58.8 30 -2.6 27.2
14:15 1021 30.15 850 25.1 15 59 28 -3.4 25.8
14:20 1021 30.15 850 25.1 15.3 59.5 29 -2.7 27.2
14:25 1021 30.15 850 25.1 15.7 60.2 28 -2.8 26.9
14:30 1021 30.15 850 25.1 15.2 59.3 28 -2.9 26.7
14:35 1021 30.15 850 25.1 15.3 59.6 28 -2.8 27
14:40 1021 30.15 850 25.1 15.4 59.7 28 -2.9 26.8
14:45 1020 30.12 850 25.1 15.3 59.5 29 -2.7 27.2
14:50 1020 30.12 850 25.1 15.1 59.1 29 -2.8 27
14:55 1020 30.12 850 25.1 15 59 29 -2.7 27.1
15:00 1020 30.12 850 25.1 15.1 59.2 29 -2.8 26.9
15:05 1020 30.12 849 25.07 15.2 59.3 28 -3 26.5
15:10 1020 30.12 849 25.07 15.2 59.4 29 -2.8 26.9
15:15 1020 30.12 849 25.07 15.6 60 28 -2.7 27.1
15:20 1020 30.12 849 25.07 15.4 59.8 28 -2.8 27
15:25 1020 30.12 849 25.07 15.7 60.3 28 -2.8 27
15:30 1020 30.12 849 25.07 15.6 60 29 -2.5 27.5
15:35 1020 30.12 849 25.07 15.5 59.8 29 -2.6 27.3
15:40 1020 30.12 849 25.07 15.8 60.4 28 -2.6 27.4
15:45 1020 30.12 849 25.07 15.9 60.5 28 -2.4 27.8
15:50 1019 30.09 849 25.07 16.2 61.2 27 -2.5 27.4
15:55 1019 30.09 849 25.07 16.1 60.9 28 -2.5 27.5
16:00 1019 30.09 849 25.07 15.8 60.4 28 -2.6 27.4
16:05 1019 30.09 848 25.04 15.5 60 29 -2.4 27.7
16:10 1019 30.09 848 25.04 15.7 60.3 29 -2.4 27.7
16:15 1019 30.09 848 25.04 15.5 59.9 29 -2.4 27.7
16:20 1019 30.09 848 25.04 15.6 60 29 -2.2 28.1
16:25 1019 30.09 848 25.04 15.4 59.7 30 -1.9 28.5
16:30 1019 30.09 848 25.04 15.6 60 31 -1.3 29.6
16:35 1019 30.09 848 25.04 15.3 59.5 32 -1.3 29.6
16:40 1019 30.09 848 25.04 15.5 60 31 -1.5 29.3
16:45 1019 30.09 848 25.04 15.7 60.2 31 -1.3 29.7
16:50 1019 30.09 848 25.04 15.6 60.1 32 -0.8 30.5
16:55 1019 30.09 848 25.04 15.6 60 31 -1.4 29.5
17:00 1019 30.09 848 25.04 15.9 60.7 31 -0.9 30.4
17:05 1019 30.09 848 25.04 16.2 61.1 30 -1.1 30
17:10 1019 30.09 848 25.04 15.8 60.5 32 -0.6 30.9
17:15 1019 30.09 848 25.04 15.5 59.8 33 -0.7 30.8
17:20 1019 30.09 848 25.04 15.5 59.8 33 -0.7 30.8
17:25 1019 30.09 848 25.04 15.3 59.6 33 -1 30.3
17:30 1019 30.09 848 25.04 15.6 60 32 -0.8 30.5
17:35 1019 30.09 848 25.04 15.6 60.2 32 -0.7 30.7
17:40 1019 30.09 848 25.04 15.6 60.1 33 -0.7 30.8
17:45 1019 30.09 848 25.04 15.5 59.9 33 -0.7 30.7
17:50 1019 30.09 848 25.04 15.4 59.7 33 -0.6 30.9
17:55 1019 30.09 848 25.04 15.3 59.5 33 -0.9 30.4
18:00 1019 30.09 848 25.04 15.2 59.4 33 -0.9 30.3
18:05 1018 30.06 848 25.04 15.3 59.5 32 -1.2 29.9
18:10 1018 30.06 848 25.04 15.2 59.4 32 -1.1 30
18:15 1018 30.06 848 25.04 15.4 59.6 32 -1.3 29.7
18:20 1018 30.06 848 25.04 15.4 59.7 31 -1.5 29.3
18:25 1018 30.06 848 25.04 15.4 59.7 31 -1.6 29.1
18:30 1018 30.06 847 25.01 15.4 59.6 31 -1.7 29
18:35 1018 30.06 847 25.01 15.4 59.6 31 -1.6 29.1
18:40 1018 30.06 847 25.01 15.4 59.6 31 -1.5 29.3
18:45 1018 30.06 847 25.01 15.4 59.6 31 -1.5 29.3
18:50 1018 30.06 847 25.01 15.3 59.6 31 -1.7 29
18:55 1018 30.06 847 25.01 15.3 59.5 31 -1.7 29
19:00 1018 30.06 847 25.01 15.2 59.4 31 -1.8 28.8
19:05 1018 30.06 847 25.01 15.2 59.4 30 -1.9 28.5
19:10 1018 30.06 847 25.01 15.2 59.3 31 -1.8 28.7
19:15 1018 30.06 847 25.01 15.1 59.1 31 -1.9 28.5
19:20 1018 30.06 847 25.01 15 59 31 -2 28.5
19:25 1018 30.06 847 25.01 15 58.9 31 -1.8 28.7
19:30 1018 30.06 847 25.01 14.9 58.8 31 -2 28.4
19:35 1018 30.06 847 25.01 14.9 58.7 32 -1.8 28.8
19:40 1018 30.06 847 25.01 14.7 58.5 32 -1.6 29
19:45 1018 30.06 847 25.01 14.7 58.4 32 -1.9 28.6
19:50 1018 30.06 847 25.01 14.6 58.2 32 -1.9 28.5
19:55 1018 30.06 847 25.01 14.5 58 32 -2.1 28.3
20:00 1018 30.06 847 25.01 14.4 57.9 32 -2.1 28.2
20:05 1018 30.06 847 25.01 14.4 57.9 31 -2.4 27.8
20:10 1018 30.06 847 25.01 14.4 57.8 31 -2.4 27.8
20:15 1018 30.06 847 25.01 14.3 57.7 31 -2.4 27.6
20:20 1018 30.06 847 25.01 14.1 57.3 32 -2.5 27.6
20:25 1018 30.06 847 25.01 13.9 57.1 32 -2.4 27.8
20:30 1018 30.06 847 25.01 13.8 56.9 32 -2.5 27.5
20:35 1018 30.06 847 25.01 13.8 56.8 32 -2.6 27.4
20:40 1018 30.06 847 25.01 13.7 56.6 32 -2.5 27.5
20:45 1018 30.06 847 25.01 13.6 56.4 33 -2.5 27.5
20:50 1018 30.06 847 25.01 13.5 56.4 32 -2.6 27.3
20:55 1018 30.06 847 25.01 13.5 56.4 32 -2.7 27.1
21:00 1018 30.06 847 25.01 13.5 56.3 32 -2.6 27.3
21:05 1018 30.06 847 25.01 13.4 56.2 32 -2.7 27.2
21:10 1018 30.06 847 25.01 13.4 56.1 32 -2.7 27.1
21:15 1018 30.06 847 25.01 13.3 56 33 -2.6 27.2
21:20 1018 30.06 847 25.01 13.3 55.9 33 -2.6 27.4
21:25 1018 30.06 847 25.01 13.2 55.8 33 -2.7 27.2
21:30 1018 30.06 847 25.01 13.2 55.8 33 -2.6 27.3
21:35 1018 30.06 847 25.01 13.3 55.9 33 -2.7 27.1
21:40 1018 30.06 847 25.01 13.3 55.9 32 -2.8 26.9
21:45 1018 30.06 847 25.01 13.4 56.1 32 -2.8 27
21:50 1018 30.06 847 25.01 13.3 55.9 33 -2.7 27.2
21:55 1018 30.06 847 25.01 13.1 55.7 33 -2.8 26.9
22:00 1018 30.06 847 25.01 13.2 55.7 33 -2.8 27
22:05 1018 30.06 847 25.01 13.1 55.6 33 -2.7 27.1
22:10 1018 30.06 847 25.01 13 55.4 33 -2.8 26.9
22:15 1018 30.06 847 25.01 13 55.4 33 -2.9 26.8
22:20 1018 30.06 847 25.01 13.1 55.7 33 -2.8 26.9
22:25 1018 30.06 847 25.01 13 55.4 33 -2.8 26.9
22:30 1018 30.06 847 25.01 12.9 55.3 33 -2.9 26.8
22:35 1018 30.06 847 25.01 13 55.4 33 -2.9 26.8
22:40 1018 30.06 847 25.01 12.9 55.2 33 -2.8 26.9
22:45 1018 30.06 847 25.01 12.7 54.9 34 -2.8 27
22:50 1018 30.06 847 25.01 12.6 54.6 34 -2.8 26.9
22:55 1018 30.06 847 25.01 12.5 54.5 34 -2.7 27.2
23:00 1018 30.06 847 25.01 12.4 54.2 35 -2.7 27.2
23:05 1018 30.06 847 25.01 12.3 54.1 35 -2.5 27.5
23:10 1017 30.03 847 25.01 12.1 53.8 36 -2.5 27.6
23:15 1017 30.03 847 25.01 12.1 53.8 36 -2.3 27.8
23:20 1017 30.03 847 25.01 12 53.5 37 -2.3 27.9
23:25 1017 30.03 846 24.98 12 53.5 36 -2.4 27.7
23:30 1017 30.03 846 24.98 12 53.6 37 -2.2 28
23:35 1017 30.03 846 24.98 12 53.5 37 -2.1 28.2
23:40 1017 30.03 846 24.98 11.9 53.4 37 -2.1 28.2
23:45 1017 30.03 846 24.98 11.8 53.2 38 -2 28.5
23:50 1017 30.03 846 24.98 11.6 52.9 39 -1.9 28.6
23:55 1017 30.03 846 24.98 11.5 52.7 39 -1.8 28.7
24:00 1017 30.03 846 24.98 11.4 52.5 40 -1.8 28.8